createdAt,value
2017-07-11T00:02:32.975Z,49.5
2017-07-11T00:03:34.772Z,49.7
2017-07-11T00:04:36.915Z,49.7
2017-07-11T00:05:38.713Z,49.3
2017-07-11T00:06:40.515Z,49.4
2017-07-11T00:07:42.657Z,49.5
2017-07-11T00:08:44.095Z,49.3
2017-07-11T00:09:45.923Z,49.7
2017-07-11T00:10:47.724Z,49.7
2017-07-11T00:11:49.528Z,49.7
2017-07-11T00:12:51.327Z,49.4
2017-07-11T00:13:53.461Z,49.7
2017-07-11T00:14:55.240Z,49.4
2017-07-11T00:15:56.683Z,49.6
2017-07-11T00:16:58.484Z,49.4
2017-07-11T00:18:00.335Z,49.4
2017-07-11T00:19:01.805Z,49.7
2017-07-11T00:20:03.941Z,49.4
2017-07-11T00:21:05.739Z,49.5
2017-07-11T00:22:07.875Z,49.4
2017-07-11T00:23:10.058Z,49.4
2017-07-11T00:24:11.167Z,49.6
2017-07-11T00:25:12.273Z,49.4
2017-07-11T00:26:13.404Z,49.6
2017-07-11T00:27:15.537Z,49.6
2017-07-11T00:28:16.983Z,49.3
2017-07-11T00:29:18.787Z,49.4
2017-07-11T00:30:20.589Z,49.5
2017-07-11T00:31:22.385Z,49.6
2017-07-11T00:32:24.188Z,49.4
2017-07-11T00:33:26.322Z,49.4
2017-07-11T00:34:28.169Z,49.3
2017-07-11T00:35:30.305Z,49.2
2017-07-11T00:36:31.752Z,49.6
2017-07-11T00:37:32.863Z,49.3
2017-07-11T00:38:34.661Z,49.4
2017-07-11T00:39:36.464Z,49.2
2017-07-11T00:40:38.266Z,49.2
2017-07-11T00:41:39.398Z,49.3
2017-07-11T00:42:41.534Z,49.2
2017-07-11T00:43:42.666Z,49.4
2017-07-11T00:44:44.130Z,49.3
2017-07-11T00:45:45.306Z,49.4
2017-07-11T00:46:47.087Z,49.6
2017-07-11T00:47:48.886Z,49.3
2017-07-11T00:48:51.019Z,49.3
2017-07-11T00:49:52.822Z,49.2
2017-07-11T00:50:54.958Z,49.3
2017-07-11T00:51:56.798Z,49.4
2017-07-11T00:52:58.921Z,49.5
2017-07-11T00:54:00.721Z,49.5
2017-07-11T00:55:02.857Z,49.4
2017-07-11T00:56:04.325Z,49.5
2017-07-11T00:57:06.138Z,49.3
2017-07-11T00:58:07.925Z,49.4
2017-07-11T00:59:09.730Z,49.6
2017-07-11T01:00:11.866Z,49.3
2017-07-11T01:01:13.664Z,49.6
2017-07-11T01:02:15.460Z,49.4
2017-07-11T01:03:17.237Z,49.5
2017-07-11T01:04:19.374Z,49.4
2017-07-11T01:05:20.837Z,49.5
2017-07-11T01:06:22.283Z,49.9
2017-07-11T01:07:24.083Z,49.5
2017-07-11T01:08:26.218Z,49.9
2017-07-11T01:09:27.665Z,49.7
2017-07-11T01:10:29.800Z,49.5
2017-07-11T01:11:31.602Z,49.9
2017-07-11T01:12:33.402Z,49.5
2017-07-11T01:13:35.217Z,49.3
2017-07-11T01:14:37.354Z,49.2
2017-07-11T01:15:39.490Z,49.3
2017-07-11T01:16:40.956Z,49.6
2017-07-11T01:17:42.757Z,50
2017-07-11T01:18:44.892Z,50
2017-07-11T01:19:46.694Z,49.9
2017-07-11T01:20:48.141Z,49.2
2017-07-11T01:21:50.275Z,50.1
2017-07-11T01:22:52.056Z,49.9
2017-07-11T01:23:53.836Z,50.1
2017-07-11T01:24:55.614Z,49.2
2017-07-11T01:25:57.749Z,49.2
2017-07-11T01:26:59.551Z,49.7
2017-07-11T01:28:00.657Z,49.9
2017-07-11T01:29:02.472Z,49.1
2017-07-11T01:30:04.608Z,49.6
2017-07-11T01:31:06.409Z,50
2017-07-11T01:32:08.208Z,49.9
2017-07-11T01:33:09.988Z,50
2017-07-11T01:34:12.126Z,49.2
2017-07-11T01:35:13.925Z,49.9
2017-07-11T01:36:15.771Z,49.2
2017-07-11T01:37:17.219Z,49.6
2017-07-11T01:38:19.022Z,49.2
2017-07-11T01:39:20.823Z,49.8
2017-07-11T01:40:22.624Z,49.8
2017-07-11T01:41:24.427Z,49.8
2017-07-11T01:42:26.561Z,50
2017-07-11T01:43:28.345Z,49.8
2017-07-11T01:44:29.811Z,49.8
2017-07-11T01:45:31.611Z,49.9
2017-07-11T01:46:33.746Z,49.8
2017-07-11T01:47:35.189Z,49.5
2017-07-11T01:48:36.991Z,50
2017-07-11T01:49:38.791Z,49.8
2017-07-11T01:50:40.961Z,49.9
2017-07-11T01:51:42.758Z,49.8
2017-07-11T01:52:44.896Z,49.9
2017-07-11T01:53:46.734Z,49.8
2017-07-11T01:54:48.549Z,49.9
2017-07-11T01:55:50.013Z,49.8
2017-07-11T01:56:52.178Z,49.8
2017-07-11T01:57:53.979Z,49.7
2017-07-11T01:58:55.781Z,49.7
2017-07-11T01:59:57.583Z,49.8
2017-07-11T02:00:59.385Z,49.7
2017-07-11T02:02:01.189Z,49.7
2017-07-11T02:03:02.989Z,49.8
2017-07-11T02:04:04.453Z,49.9
2017-07-11T02:05:06.587Z,49.9
2017-07-11T02:06:08.725Z,49.6
2017-07-11T02:07:10.191Z,49.9
2017-07-11T02:08:11.637Z,49.7
2017-07-11T02:09:13.439Z,49.8
2017-07-11T02:10:15.222Z,49.8
2017-07-11T02:11:17.356Z,49.8
2017-07-11T02:12:19.497Z,49.7
2017-07-11T02:13:20.949Z,49.7
2017-07-11T02:14:23.077Z,49.5
2017-07-11T02:15:25.211Z,49.6
2017-07-11T02:16:27.014Z,49.5
2017-07-11T02:17:29.150Z,49.5
2017-07-11T02:18:31.287Z,49.8
2017-07-11T02:19:32.741Z,49.5
2017-07-11T02:20:34.877Z,49.5
2017-07-11T02:21:36.681Z,49.9
2017-07-11T02:22:38.823Z,49.5
2017-07-11T02:23:40.624Z,49.7
2017-07-11T02:24:42.760Z,49.6
2017-07-11T02:25:44.539Z,49.5
2017-07-11T02:26:46.342Z,49.6
2017-07-11T02:27:48.476Z,49.6
2017-07-11T02:28:49.942Z,49.7
2017-07-11T02:29:51.720Z,49.7
2017-07-11T02:30:53.523Z,49.7
2017-07-11T02:31:55.323Z,49.5
2017-07-11T02:32:57.459Z,49.7
2017-07-11T02:33:58.934Z,49.6
2017-07-11T02:35:00.378Z,49.6
2017-07-11T02:36:02.154Z,49.6
2017-07-11T02:37:03.934Z,49.6
2017-07-11T02:38:05.738Z,49.6
2017-07-11T02:39:07.538Z,49.6
2017-07-11T02:40:09.337Z,49.7
2017-07-11T02:41:11.139Z,49.9
2017-07-11T02:42:13.274Z,49.9
2017-07-11T02:43:14.755Z,49.6
2017-07-11T02:44:16.220Z,49.8
2017-07-11T02:45:18.021Z,49.7
2017-07-11T02:46:19.800Z,49.7
2017-07-11T02:47:21.602Z,49.8
2017-07-11T02:48:22.789Z,49.9
2017-07-11T02:49:24.556Z,49.8
2017-07-11T02:50:26.715Z,50
2017-07-11T02:51:28.852Z,49.9
2017-07-11T02:52:30.986Z,49.8
2017-07-11T02:53:32.788Z,49.7
2017-07-11T02:54:34.233Z,50.1
2017-07-11T02:55:36.034Z,50.1
2017-07-11T02:56:38.171Z,49.8
2017-07-11T02:57:39.971Z,50.2
2017-07-11T02:58:41.416Z,49.8
2017-07-11T02:59:42.882Z,50.1
2017-07-11T03:00:44.685Z,49.6
2017-07-11T03:01:46.485Z,49.8
2017-07-11T03:02:47.954Z,50
2017-07-11T03:03:49.088Z,49.6
2017-07-11T03:04:51.224Z,50.1
2017-07-11T03:05:53.362Z,50.1
2017-07-11T03:06:55.506Z,49.8
2017-07-11T03:07:57.307Z,50
2017-07-11T03:08:59.441Z,49.8
2017-07-11T03:10:01.577Z,49.8
2017-07-11T03:11:03.383Z,49.8
2017-07-11T03:12:05.513Z,50
2017-07-11T03:13:07.354Z,49.9
2017-07-11T03:14:09.154Z,49.9
2017-07-11T03:15:11.342Z,49.9
2017-07-11T03:16:12.446Z,50.1
2017-07-11T03:17:14.227Z,49.9
2017-07-11T03:18:16.009Z,49.7
2017-07-11T03:19:17.810Z,49.8
2017-07-11T03:20:19.255Z,49.8
2017-07-11T03:21:21.392Z,49.8
2017-07-11T03:22:23.172Z,50
2017-07-11T03:23:24.975Z,50
2017-07-11T03:24:27.111Z,49.8
2017-07-11T03:25:29.248Z,50
2017-07-11T03:26:30.356Z,50
2017-07-11T03:27:32.159Z,50.1
2017-07-11T03:28:33.935Z,49.8
2017-07-11T03:29:36.070Z,49.8
2017-07-11T03:30:37.537Z,49.9
2017-07-11T03:31:38.647Z,49.8
2017-07-11T03:32:40.785Z,49.8
2017-07-11T03:33:42.924Z,49.8
2017-07-11T03:34:44.390Z,49.9
2017-07-11T03:35:45.836Z,50
2017-07-11T03:36:47.290Z,50.1
2017-07-11T03:37:49.426Z,50
2017-07-11T03:38:50.559Z,49.8
2017-07-11T03:39:52.346Z,49.9
2017-07-11T03:40:54.478Z,49.9
2017-07-11T03:41:56.260Z,49.8
2017-07-11T03:42:58.040Z,49.9
2017-07-11T03:43:59.851Z,49.8
2017-07-11T03:45:01.319Z,49.9
2017-07-11T03:46:02.761Z,49.9
2017-07-11T03:47:04.896Z,49.8
2017-07-11T03:48:07.032Z,50
2017-07-11T03:49:08.835Z,49.9
2017-07-11T03:50:10.634Z,50.4
2017-07-11T03:51:12.476Z,49.9
2017-07-11T03:52:14.615Z,50.3
2017-07-11T03:53:16.080Z,50.1
2017-07-11T03:54:18.217Z,50.2
2017-07-11T03:55:20.020Z,50.1
2017-07-11T03:56:21.822Z,50.2
2017-07-11T03:57:22.926Z,50.3
2017-07-11T03:58:24.731Z,50.3
2017-07-11T03:59:26.536Z,50.3
2017-07-11T04:00:28.340Z,50.3
2017-07-11T04:01:30.147Z,50.3
2017-07-11T04:02:31.258Z,50.3
2017-07-11T04:03:33.393Z,50.4
2017-07-11T04:04:35.195Z,50.5
2017-07-11T04:05:37.001Z,50.1
2017-07-11T04:06:38.799Z,50.1
2017-07-11T04:07:40.271Z,50.1
2017-07-11T04:08:42.407Z,50.2
2017-07-11T04:09:44.213Z,50.2
2017-07-11T04:10:45.997Z,50.2
2017-07-11T04:11:48.133Z,50.4
2017-07-11T04:12:50.268Z,50.2
2017-07-11T04:13:52.076Z,50.3
2017-07-11T04:14:53.875Z,50.1
2017-07-11T04:15:55.317Z,50.1
2017-07-11T04:16:57.452Z,50.2
2017-07-11T04:17:58.916Z,50.5
2017-07-11T04:19:01.053Z,50.2
2017-07-11T04:20:02.166Z,50.4
2017-07-11T04:21:03.636Z,50.3
2017-07-11T04:22:05.437Z,50.3
2017-07-11T04:23:06.883Z,50.2
2017-07-11T04:24:08.019Z,50.2
2017-07-11T04:25:09.134Z,50.2
2017-07-11T04:26:10.636Z,50.1
2017-07-11T04:27:12.433Z,50.4
2017-07-11T04:28:14.212Z,50.5
2017-07-11T04:29:15.331Z,50.1
2017-07-11T04:30:17.130Z,50.1
2017-07-11T04:31:19.264Z,50.2
2017-07-11T04:32:20.730Z,50.1
2017-07-11T04:33:22.532Z,50.3
2017-07-11T04:34:24.312Z,50
2017-07-11T04:35:26.449Z,50.3
2017-07-11T04:36:28.232Z,50.1
2017-07-11T04:37:30.084Z,50
2017-07-11T04:38:31.528Z,50
2017-07-11T04:39:33.328Z,50.1
2017-07-11T04:40:35.467Z,50.1
2017-07-11T04:41:36.935Z,50.1
2017-07-11T04:42:38.787Z,50.1
2017-07-11T04:43:40.591Z,50.1
2017-07-11T04:44:42.726Z,50.1
2017-07-11T04:45:44.194Z,50.2
2017-07-11T04:46:46.327Z,49.9
2017-07-11T04:47:48.567Z,50.2
2017-07-11T04:48:50.009Z,50.4
2017-07-11T04:49:51.815Z,50.1
2017-07-11T04:50:53.615Z,50
2017-07-11T04:51:55.419Z,50.2
2017-07-11T04:52:57.557Z,50
2017-07-11T04:53:59.696Z,50.4
2017-07-11T04:55:01.139Z,50.1
2017-07-11T04:56:02.919Z,50.3
2017-07-11T04:57:05.068Z,50.4
2017-07-11T04:58:07.210Z,50.2
2017-07-11T04:59:09.357Z,50.3
2017-07-11T05:00:11.494Z,50.1
2017-07-11T05:01:13.296Z,50.3
2017-07-11T05:02:15.100Z,50
2017-07-11T05:03:16.905Z,50.1
2017-07-11T05:04:18.707Z,50.3
2017-07-11T05:05:20.174Z,50.1
2017-07-11T05:06:21.974Z,50.2
2017-07-11T05:07:23.445Z,50.2
2017-07-11T05:08:25.580Z,50.5
2017-07-11T05:09:27.378Z,50.4
2017-07-11T05:10:29.515Z,50.3
2017-07-11T05:11:31.649Z,50
2017-07-11T05:12:33.450Z,50.3
2017-07-11T05:13:34.561Z,50.2
2017-07-11T05:14:36.339Z,50.2
2017-07-11T05:15:38.121Z,50.2
2017-07-11T05:16:39.923Z,50
2017-07-11T05:17:42.064Z,50.1
2017-07-11T05:18:43.515Z,49.9
2017-07-11T05:19:45.295Z,49.9
2017-07-11T05:20:47.094Z,49.9
2017-07-11T05:21:48.882Z,49.9
2017-07-11T05:22:50.677Z,50.2
2017-07-11T05:23:52.474Z,50
2017-07-11T05:24:54.274Z,49.9
2017-07-11T05:25:56.455Z,49.9
2017-07-11T05:26:58.258Z,50.2
2017-07-11T05:28:00.060Z,49.6
2017-07-11T05:29:02.296Z,49.5
2017-07-11T05:30:04.095Z,50.8
2017-07-11T05:31:05.564Z,50.7
2017-07-11T05:32:07.029Z,50
2017-07-11T05:33:08.809Z,50.4
2017-07-11T05:34:09.919Z,50.4
2017-07-11T05:35:11.722Z,51.2
2017-07-11T05:36:13.520Z,50.5
2017-07-11T05:37:15.657Z,50.5
2017-07-11T05:38:17.123Z,50.9
2017-07-11T05:39:18.568Z,51.3
2017-07-11T05:40:20.031Z,51.2
2017-07-11T05:41:21.474Z,50.9
2017-07-11T05:42:23.609Z,50.9
2017-07-11T05:43:25.057Z,50.7
2017-07-11T05:44:26.526Z,51.1
2017-07-11T05:45:28.329Z,51.2
2017-07-11T05:46:29.097Z,50.8
2017-07-11T05:47:30.565Z,50.9
2017-07-11T05:48:32.364Z,50.9
2017-07-11T05:49:34.163Z,51.1
2017-07-11T05:50:35.962Z,50.8
2017-07-11T05:51:37.767Z,51.6
2017-07-11T05:52:39.235Z,51.9
2017-07-11T05:53:40.680Z,51.6
2017-07-11T05:54:42.224Z,51.5
2017-07-11T05:55:44.364Z,50.6
2017-07-11T05:56:46.503Z,50.6
2017-07-11T05:57:48.640Z,50.6
2017-07-11T05:58:50.778Z,51.6
2017-07-11T05:59:52.243Z,51
2017-07-11T06:00:54.379Z,51.2
2017-07-11T06:01:55.832Z,50.8
2017-07-11T06:02:57.632Z,51.6
2017-07-11T06:03:59.431Z,51.7
2017-07-11T06:05:01.236Z,51.9
2017-07-11T06:06:02.681Z,51.9
2017-07-11T06:07:04.148Z,52.1
2017-07-11T06:08:05.950Z,51.7
2017-07-11T06:09:07.750Z,51.4
2017-07-11T06:10:09.552Z,51.5
2017-07-11T06:11:11.331Z,52
2017-07-11T06:12:13.133Z,51.8
2017-07-11T06:13:15.267Z,51.3
2017-07-11T06:14:17.401Z,50.9
2017-07-11T06:15:19.255Z,50.8
2017-07-11T06:16:20.363Z,50.6
2017-07-11T06:17:21.494Z,50.8
2017-07-11T06:18:23.277Z,50.8
2017-07-11T06:19:25.060Z,50.6
2017-07-11T06:20:27.198Z,50.4
2017-07-11T06:21:29.002Z,50.4
2017-07-11T06:22:30.450Z,50.5
2017-07-11T06:23:31.565Z,50.8
2017-07-11T06:24:33.032Z,50.6
2017-07-11T06:25:35.167Z,50.5
2017-07-11T06:26:37.303Z,50.5
2017-07-11T06:27:39.106Z,50.8
2017-07-11T06:28:40.906Z,50.4
2017-07-11T06:29:42.349Z,50.5
2017-07-11T06:30:44.131Z,51
2017-07-11T06:31:44.908Z,50.6
2017-07-11T06:32:47.046Z,50.2
2017-07-11T06:33:48.510Z,50.1
2017-07-11T06:34:50.648Z,50.7
2017-07-11T06:35:52.093Z,50.2
2017-07-11T06:36:53.906Z,50.1
2017-07-11T06:37:56.041Z,50.1
2017-07-11T06:38:58.184Z,49.7
2017-07-11T06:40:00.320Z,49.7
2017-07-11T06:41:01.769Z,49.5
2017-07-11T06:42:03.211Z,49.5
2017-07-11T06:43:05.347Z,49.1
2017-07-11T06:44:07.149Z,49.2
2017-07-11T06:45:08.600Z,49.4
2017-07-11T06:46:10.402Z,49.6
2017-07-11T06:47:12.211Z,49.1
2017-07-11T06:48:13.672Z,49.2
2017-07-11T06:49:15.814Z,49.2
2017-07-11T06:50:17.949Z,49
2017-07-11T06:51:20.094Z,49
2017-07-11T06:52:21.537Z,49.3
2017-07-11T06:53:23.676Z,49.1
2017-07-11T06:54:25.818Z,49.2
2017-07-11T06:55:27.283Z,49
2017-07-11T06:56:29.089Z,49.1
2017-07-11T06:57:30.893Z,49.3
2017-07-11T06:58:32.341Z,49.3
2017-07-11T06:59:34.479Z,48.9
2017-07-11T07:00:36.363Z,49.1
2017-07-11T07:01:38.505Z,48.8
2017-07-11T07:02:40.642Z,48.8
2017-07-11T07:03:42.443Z,48.7
2017-07-11T07:04:44.582Z,48.8
2017-07-11T07:05:46.126Z,48.5
2017-07-11T07:06:48.262Z,48.5
2017-07-11T07:07:50.399Z,48.5
2017-07-11T07:08:51.532Z,48.4
2017-07-11T07:09:52.638Z,48.5
2017-07-11T07:10:53.771Z,48.6
2017-07-11T07:11:55.912Z,48.6
2017-07-11T07:12:57.711Z,48.6
2017-07-11T07:13:59.511Z,48.5
2017-07-11T07:15:00.982Z,48.6
2017-07-11T07:16:02.447Z,48.6
2017-07-11T07:17:03.916Z,48.5
2017-07-11T07:18:05.718Z,48.6
2017-07-11T07:19:07.521Z,48.4
2017-07-11T07:20:09.322Z,48.5
2017-07-11T07:21:11.106Z,48.5
2017-07-11T07:22:12.577Z,48.2
2017-07-11T07:23:14.714Z,48.3
2017-07-11T07:24:16.849Z,48.5
2017-07-11T07:25:18.997Z,48.3
2017-07-11T07:26:20.205Z,48.3
2017-07-11T07:27:22.392Z,48.5
2017-07-11T07:28:24.180Z,48.2
2017-07-11T07:29:26.314Z,48.6
2017-07-11T07:30:27.780Z,48
2017-07-11T07:31:29.257Z,48.1
2017-07-11T07:32:30.367Z,48.1
2017-07-11T07:33:32.148Z,48.3
2017-07-11T07:34:33.951Z,48.1
2017-07-11T07:35:34.727Z,48
2017-07-11T07:36:36.529Z,48.2
2017-07-11T07:37:37.978Z,48.2
2017-07-11T07:38:40.115Z,48.1
2017-07-11T07:39:41.918Z,48
2017-07-11T07:40:43.386Z,48.2
2017-07-11T07:41:45.189Z,47.8
2017-07-11T07:42:46.999Z,47.8
2017-07-11T07:43:48.445Z,47.8
2017-07-11T07:44:50.249Z,47.8
2017-07-11T07:45:52.387Z,47.7
2017-07-11T07:46:54.193Z,48.1
2017-07-11T07:47:55.640Z,47.8
2017-07-11T07:48:57.441Z,47.8
2017-07-11T07:49:59.585Z,47.9
2017-07-11T07:51:01.358Z,47.8
2017-07-11T07:52:03.494Z,47.8
2017-07-11T07:53:05.336Z,47.8
2017-07-11T07:54:07.475Z,47.9
2017-07-11T07:55:08.585Z,48.1
2017-07-11T07:56:10.369Z,48.2
2017-07-11T07:57:12.172Z,47.9
2017-07-11T07:58:13.615Z,48
2017-07-11T07:59:15.390Z,47.7
2017-07-11T08:00:17.196Z,47.5
2017-07-11T08:01:19.001Z,47.9
2017-07-11T08:02:20.805Z,47.7
2017-07-11T08:03:22.254Z,47.8
2017-07-11T08:04:24.060Z,47.9
2017-07-11T08:05:25.861Z,47.6
2017-07-11T08:06:27.666Z,47.3
2017-07-11T08:07:28.437Z,47.3
2017-07-11T08:08:30.240Z,47.3
2017-07-11T08:09:32.020Z,47.9
2017-07-11T08:10:33.824Z,47.5
2017-07-11T08:11:35.267Z,47.7
2017-07-11T08:12:37.070Z,47.4
2017-07-11T08:13:39.206Z,47.5
2017-07-11T08:14:41.346Z,47.6
2017-07-11T08:15:42.789Z,47.7
2017-07-11T08:16:43.930Z,47.8
2017-07-11T08:17:45.372Z,47.6
2017-07-11T08:18:47.512Z,47.8
2017-07-11T08:19:49.313Z,47.6
2017-07-11T08:20:50.781Z,47.2
2017-07-11T08:21:52.584Z,47.7
2017-07-11T08:22:54.773Z,47.5
2017-07-11T08:23:56.218Z,47.5
2017-07-11T08:24:58.356Z,47.6
2017-07-11T08:26:00.134Z,47.5
2017-07-11T08:27:01.602Z,47.4
2017-07-11T08:28:03.408Z,47.4
2017-07-11T08:29:05.555Z,47.6
2017-07-11T08:30:06.999Z,47.3
2017-07-11T08:31:09.138Z,47.4
2017-07-11T08:32:10.937Z,47.2
2017-07-11T08:33:12.406Z,47.2
2017-07-11T08:34:14.544Z,47.3
2017-07-11T08:35:16.014Z,47
2017-07-11T08:36:17.482Z,47.3
2017-07-11T08:37:18.621Z,47
2017-07-11T08:38:20.523Z,46.9
2017-07-11T08:39:21.997Z,47.3
2017-07-11T08:40:23.776Z,47.1
2017-07-11T08:41:25.574Z,47
2017-07-11T08:42:27.710Z,46.8
2017-07-11T08:43:29.851Z,46.9
2017-07-11T08:44:31.992Z,47.2
2017-07-11T08:45:33.460Z,47
2017-07-11T08:46:34.934Z,47.1
2017-07-11T08:47:36.739Z,46.9
2017-07-11T08:48:38.203Z,46.8
2017-07-11T08:49:40.342Z,46.6
2017-07-11T08:50:42.148Z,46.5
2017-07-11T08:51:43.948Z,46.7
2017-07-11T08:52:46.089Z,46.8
2017-07-11T08:53:48.232Z,46.7
2017-07-11T08:54:50.370Z,46.5
2017-07-11T08:55:51.815Z,46.7
2017-07-11T08:56:53.618Z,46.6
2017-07-11T08:57:55.761Z,46.7
2017-07-11T08:58:57.253Z,46.5
2017-07-11T08:59:59.055Z,46.7
2017-07-11T09:01:00.854Z,46.4
2017-07-11T09:02:02.992Z,46.4
2017-07-11T09:03:03.769Z,46.5
2017-07-11T09:04:05.554Z,46.8
2017-07-11T09:05:07.690Z,46.4
2017-07-11T09:06:09.492Z,46.6
2017-07-11T09:07:10.599Z,46.6
2017-07-11T09:08:12.737Z,46.5
2017-07-11T09:09:14.875Z,46.3
2017-07-11T09:10:16.326Z,46.5
2017-07-11T09:11:18.131Z,46.6
2017-07-11T09:12:19.910Z,46.3
2017-07-11T09:13:22.047Z,46.4
2017-07-11T09:14:23.841Z,46.5
2017-07-11T09:15:25.979Z,46.3
2017-07-11T09:16:27.109Z,46.4
2017-07-11T09:17:28.222Z,46.5
2017-07-11T09:18:30.027Z,46.5
2017-07-11T09:19:31.472Z,46.6
2017-07-11T09:20:33.253Z,46.7
2017-07-11T09:21:34.364Z,46.3
2017-07-11T09:22:35.812Z,46
2017-07-11T09:23:37.621Z,45.7
2017-07-11T09:24:39.761Z,45.8
2017-07-11T09:25:41.228Z,46.4
2017-07-11T09:26:43.371Z,45.9
2017-07-11T09:27:45.187Z,46.2
2017-07-11T09:28:46.978Z,45.7
2017-07-11T09:29:48.832Z,45.8
2017-07-11T09:30:50.616Z,45.7
2017-07-11T09:31:52.755Z,45.9
2017-07-11T09:32:54.894Z,46.1
2017-07-11T09:33:57.033Z,46.1
2017-07-11T09:34:58.834Z,46.2
2017-07-11T09:36:00.971Z,46.1
2017-07-11T09:37:02.439Z,46.1
2017-07-11T09:38:04.578Z,46.1
2017-07-11T09:39:06.384Z,46.2
2017-07-11T09:40:08.524Z,46.1
2017-07-11T09:41:10.312Z,46.1
2017-07-11T09:42:11.470Z,45.9
2017-07-11T09:43:13.295Z,45.9
2017-07-11T09:44:15.061Z,45.8
2017-07-11T09:45:16.865Z,45.9
2017-07-11T09:46:18.668Z,45.9
2017-07-11T09:47:20.472Z,45.8
2017-07-11T09:48:21.943Z,45.6
2017-07-11T09:49:24.081Z,45.8
2017-07-11T09:50:26.238Z,45.9
2017-07-11T09:51:28.040Z,45.5
2017-07-11T09:52:29.506Z,45.7
2017-07-11T09:53:31.646Z,45.9
2017-07-11T09:54:33.453Z,45.5
2017-07-11T09:55:35.255Z,45.9
2017-07-11T09:56:37.397Z,45.8
2017-07-11T09:57:39.534Z,45.9
2017-07-11T09:58:41.342Z,45.8
2017-07-11T09:59:43.482Z,45.7
2017-07-11T10:00:44.949Z,45.8
2017-07-11T10:01:47.089Z,45.8
2017-07-11T10:02:49.225Z,45.8
2017-07-11T10:03:51.366Z,45.5
2017-07-11T10:04:53.178Z,45.7
2017-07-11T10:05:54.959Z,45.6
2017-07-11T10:06:56.075Z,45.6
2017-07-11T10:07:57.208Z,45.3
2017-07-11T10:08:58.677Z,45.6
2017-07-11T10:10:00.486Z,45.5
2017-07-11T10:11:02.267Z,45.4
2017-07-11T10:12:03.724Z,45.6
2017-07-11T10:13:05.864Z,45.7
2017-07-11T10:14:07.667Z,45.5
2017-07-11T10:15:09.471Z,45.8
2017-07-11T10:16:11.613Z,45.5
2017-07-11T10:17:13.079Z,45.5
2017-07-11T10:18:14.858Z,45.5
2017-07-11T10:19:16.309Z,44.9
2017-07-11T10:20:17.782Z,45.2
2017-07-11T10:21:20.020Z,45.1
2017-07-11T10:22:22.157Z,45.4
2017-07-11T10:23:23.607Z,45.3
2017-07-11T10:24:25.072Z,44.6
2017-07-11T10:25:26.853Z,45.3
2017-07-11T10:26:28.657Z,44.9
2017-07-11T10:27:30.461Z,45
2017-07-11T10:28:32.265Z,44.8
2017-07-11T10:29:34.068Z,45.3
2017-07-11T10:30:35.512Z,45.2
2017-07-11T10:31:37.314Z,45.2
2017-07-11T10:32:39.459Z,44.8
2017-07-11T10:33:40.924Z,44.9
2017-07-11T10:34:42.371Z,45
2017-07-11T10:35:43.841Z,45
2017-07-11T10:36:44.963Z,45.2
2017-07-11T10:37:47.101Z,45.1
2017-07-11T10:38:48.573Z,45.1
2017-07-11T10:39:50.047Z,44.8
2017-07-11T10:40:52.186Z,44.8
2017-07-11T10:41:53.990Z,45
2017-07-11T10:42:55.104Z,44.7
2017-07-11T10:43:56.571Z,45.1
2017-07-11T10:44:58.022Z,45
2017-07-11T10:45:59.467Z,44.9
2017-07-11T10:47:01.269Z,44.6
2017-07-11T10:48:02.732Z,44.8
2017-07-11T10:49:04.538Z,44.7
2017-07-11T10:50:06.673Z,44.9
2017-07-11T10:51:08.129Z,44.8
2017-07-11T10:52:09.930Z,45
2017-07-11T10:53:12.067Z,45
2017-07-11T10:54:13.872Z,45
2017-07-11T10:55:16.007Z,44.8
2017-07-11T10:56:17.784Z,44.8
2017-07-11T10:57:18.895Z,44.7
2017-07-11T10:58:20.700Z,44.9
2017-07-11T10:59:22.839Z,44.8
2017-07-11T11:00:23.951Z,44.7
2017-07-11T11:01:26.090Z,44.9
2017-07-11T11:02:28.227Z,45
2017-07-11T11:03:29.704Z,44.9
2017-07-11T11:04:31.837Z,44.6
2017-07-11T11:05:33.642Z,44.8
2017-07-11T11:06:35.088Z,44.8
2017-07-11T11:07:36.561Z,44.6
2017-07-11T11:08:38.343Z,44.7
2017-07-11T11:09:39.807Z,44.9
2017-07-11T11:10:41.269Z,44.9
2017-07-11T11:11:42.712Z,44.8
2017-07-11T11:12:44.494Z,44.6
2017-07-11T11:13:46.297Z,44.7
2017-07-11T11:14:48.432Z,44.7
2017-07-11T11:15:50.240Z,44.5
2017-07-11T11:16:51.808Z,44.8
2017-07-11T11:17:53.587Z,44.5
2017-07-11T11:18:55.038Z,44.2
2017-07-11T11:19:56.490Z,44.4
2017-07-11T11:20:57.605Z,44.8
2017-07-11T11:21:59.407Z,44.5
2017-07-11T11:23:00.521Z,44.5
2017-07-11T11:24:01.965Z,44.4
2017-07-11T11:25:03.076Z,44
2017-07-11T11:26:04.525Z,44.5
2017-07-11T11:27:05.997Z,43.9
2017-07-11T11:28:07.461Z,44.2
2017-07-11T11:29:09.601Z,44.2
2017-07-11T11:30:11.745Z,44.4
2017-07-11T11:31:13.885Z,44.4
2017-07-11T11:32:16.020Z,44.1
2017-07-11T11:33:17.462Z,43.8
2017-07-11T11:34:19.264Z,44
2017-07-11T11:35:21.405Z,43.8
2017-07-11T11:36:22.520Z,44.2
2017-07-11T11:37:24.370Z,43.9
2017-07-11T11:38:26.511Z,44.1
2017-07-11T11:39:28.312Z,44
2017-07-11T11:40:30.115Z,44
2017-07-11T11:41:30.894Z,44
2017-07-11T11:42:32.366Z,44.2
2017-07-11T11:43:33.812Z,43.8
2017-07-11T11:44:35.596Z,44
2017-07-11T11:45:37.398Z,44.2
2017-07-11T11:46:39.181Z,44
2017-07-11T11:47:40.657Z,44.1
2017-07-11T11:48:42.794Z,43.8
2017-07-11T11:49:44.598Z,44.1
2017-07-11T11:50:46.069Z,44.1
2017-07-11T11:51:47.516Z,43.9
2017-07-11T11:52:49.318Z,43.8
2017-07-11T11:53:51.454Z,44
2017-07-11T11:54:53.590Z,44
2017-07-11T11:55:55.062Z,43.8
2017-07-11T11:56:57.197Z,43.8
2017-07-11T11:57:58.648Z,44
2017-07-11T11:59:00.782Z,44.2
2017-07-11T12:00:02.247Z,43.8
2017-07-11T12:01:04.032Z,43.8
2017-07-11T12:02:05.839Z,43.8
2017-07-11T12:03:06.948Z,44.2
2017-07-11T12:04:08.753Z,43.9
2017-07-11T12:05:10.200Z,43.8
2017-07-11T12:06:12.339Z,44.2
2017-07-11T12:07:14.479Z,43.9
2017-07-11T12:08:16.286Z,43.9
2017-07-11T12:09:18.085Z,43.8
2017-07-11T12:10:19.888Z,43.8
2017-07-11T12:11:21.674Z,43.7
2017-07-11T12:12:23.485Z,43.4
2017-07-11T12:13:25.284Z,43.8
2017-07-11T12:14:26.728Z,43.6
2017-07-11T12:15:28.506Z,43.6
2017-07-11T12:16:30.312Z,43.6
2017-07-11T12:17:32.096Z,43.6
2017-07-11T12:18:33.544Z,43.8
2017-07-11T12:19:35.348Z,43.8
2017-07-11T12:20:37.152Z,43.2
2017-07-11T12:21:38.954Z,43.5
2017-07-11T12:22:40.760Z,43.3
2017-07-11T12:23:42.564Z,43.1
2017-07-11T12:24:44.037Z,43
2017-07-11T12:25:45.486Z,43.1
2017-07-11T12:26:47.620Z,43.5
2017-07-11T12:27:49.071Z,43.5
2017-07-11T12:28:50.514Z,43.4
2017-07-11T12:29:52.297Z,43.1
2017-07-11T12:30:54.435Z,43
2017-07-11T12:31:56.241Z,43.5
2017-07-11T12:32:58.022Z,43.1
2017-07-11T12:34:00.158Z,43.4
2017-07-11T12:35:01.267Z,43.2
2017-07-11T12:36:03.405Z,43.1
2017-07-11T12:37:04.848Z,43.7
2017-07-11T12:38:05.965Z,43.3
2017-07-11T12:39:07.770Z,43.5
2017-07-11T12:40:09.237Z,43.2
2017-07-11T12:41:10.709Z,43.3
2017-07-11T12:42:12.516Z,43.3
2017-07-11T12:43:14.325Z,43.2
2017-07-11T12:44:15.795Z,43.5
2017-07-11T12:45:17.239Z,43.3
2017-07-11T12:46:19.044Z,42.9
2017-07-11T12:47:21.181Z,43
2017-07-11T12:48:22.649Z,43.4
2017-07-11T12:49:24.122Z,43.4
2017-07-11T12:50:25.925Z,43.3
2017-07-11T12:51:27.372Z,43.1
2017-07-11T12:52:28.487Z,42.9
2017-07-11T12:53:29.928Z,43.2
2017-07-11T12:54:31.739Z,42.6
2017-07-11T12:55:33.209Z,43.1
2017-07-11T12:56:35.012Z,42.9
2017-07-11T12:57:37.150Z,43.3
2017-07-11T12:58:39.292Z,43
2017-07-11T12:59:41.075Z,43.4
2017-07-11T13:00:43.212Z,43.3
2017-07-11T13:01:45.016Z,43.2
2017-07-11T13:02:47.153Z,43
2017-07-11T13:03:49.123Z,42.9
2017-07-11T13:04:50.927Z,43.1
2017-07-11T13:05:53.065Z,42.8
2017-07-11T13:06:54.536Z,42.7
2017-07-11T13:07:56.676Z,42.9
2017-07-11T13:08:57.816Z,42.7
2017-07-11T13:09:58.947Z,42.7
2017-07-11T13:11:00.730Z,42.7
2017-07-11T13:12:02.867Z,42.7
2017-07-11T13:13:04.319Z,42.8
2017-07-11T13:14:06.108Z,42.7
2017-07-11T13:15:07.902Z,43
2017-07-11T13:16:09.033Z,43.2
2017-07-11T13:17:10.839Z,42.9
2017-07-11T13:18:11.953Z,43.1
2017-07-11T13:19:13.422Z,42.9
2017-07-11T13:20:15.562Z,43.1
2017-07-11T13:21:17.028Z,42.9
2017-07-11T13:22:18.495Z,42.7
2017-07-11T13:23:20.300Z,43
2017-07-11T13:24:21.748Z,42.7
2017-07-11T13:25:23.886Z,42.7
2017-07-11T13:26:25.690Z,43.2
2017-07-11T13:27:27.491Z,43.2
2017-07-11T13:28:28.606Z,42.9
2017-07-11T13:29:30.055Z,42.7
2017-07-11T13:30:31.866Z,43.1
2017-07-11T13:31:34.003Z,43
2017-07-11T13:32:35.449Z,42.9
2017-07-11T13:33:37.231Z,43.4
2017-07-11T13:34:39.034Z,43.3
2017-07-11T13:35:41.170Z,43.1
2017-07-11T13:36:42.975Z,42.8
2017-07-11T13:37:44.777Z,43.2
2017-07-11T13:38:46.920Z,43
2017-07-11T13:39:48.715Z,43.4
2017-07-11T13:40:50.494Z,43.3
2017-07-11T13:41:52.629Z,43.4
2017-07-11T13:42:54.408Z,43.3
2017-07-11T13:43:56.211Z,43.3
2017-07-11T13:44:57.677Z,43.3
2017-07-11T13:45:59.457Z,43.3
2017-07-11T13:47:01.594Z,43.2
2017-07-11T13:48:03.395Z,43.3
2017-07-11T13:49:05.197Z,43